createdAt,value
2022-10-17T00:01:07.666Z,100907.06
2022-10-17T00:06:12.943Z,100916.25
2022-10-17T00:11:17.386Z,100917.47
2022-10-17T00:16:24.377Z,100927.53
2022-10-17T00:21:28.392Z,100921.50
2022-10-17T00:26:31.022Z,100928.09
2022-10-17T00:31:33.688Z,100921.22
2022-10-17T00:36:38.236Z,100924.16
2022-10-17T00:41:40.905Z,100935.53
2022-10-17T00:46:43.549Z,100940.53
2022-10-17T00:51:48.586Z,100941.53
2022-10-17T00:56:51.261Z,100942.81
2022-10-17T01:01:55.502Z,100942.81
2022-10-17T01:06:59.525Z,100944.03
2022-10-17T01:12:05.274Z,100930.81
2022-10-17T01:17:12.020Z,100936.44
2022-10-17T01:22:17.512Z,100941.41
2022-10-17T01:27:45.054Z,100928.59
2022-10-17T01:32:50.635Z,100930.13
2022-10-17T01:37:56.910Z,100931.97
2022-10-17T01:43:01.313Z,100928.75
2022-10-17T01:48:08.533Z,100927.78
2022-10-17T01:53:13.529Z,100918.22
2022-10-17T01:58:19.905Z,100926.31
2022-10-17T02:03:24.169Z,100919.38
2022-10-17T02:08:27.613Z,100910.69
2022-10-17T02:13:36.949Z,100915.22
2022-10-17T02:18:58.710Z,100911.78
2022-10-17T02:24:05.911Z,100912.00
2022-10-17T02:29:10.691Z,100915.03
2022-10-17T02:34:17.150Z,100909.78
2022-10-17T02:39:23.267Z,100920.53
2022-10-17T02:44:26.049Z,100917.09
2022-10-17T02:49:39.753Z,100908.63
2022-10-17T02:54:43.870Z,100910.56
2022-10-17T02:59:46.625Z,100913.25
2022-10-17T03:04:51.166Z,100912.50
2022-10-17T03:09:53.875Z,100910.91
2022-10-17T03:14:56.877Z,100921.66
2022-10-17T03:20:01.251Z,100914.03
2022-10-17T03:25:06.335Z,100917.91
2022-10-17T03:30:11.848Z,100928.66
2022-10-17T03:35:16.242Z,100923.28
2022-10-17T03:40:23.206Z,100930.84
2022-10-17T03:45:26.240Z,100920.19
2022-10-17T03:50:30.630Z,100932.88
2022-10-17T03:55:34.687Z,100934.47
2022-10-17T04:00:37.916Z,100934.72
2022-10-17T04:05:42.386Z,100939.22
2022-10-17T04:10:45.125Z,100942.25
2022-10-17T04:15:55.037Z,100948.56
2022-10-17T04:20:59.267Z,100948.56
2022-10-17T04:26:03.322Z,100953.09
2022-10-17T04:31:07.531Z,100940.84
2022-10-17T04:36:22.883Z,100956.97
2022-10-17T04:41:25.841Z,100955.38
2022-10-17T04:46:28.551Z,100954.53
2022-10-17T04:51:32.672Z,100956.34
2022-10-17T04:57:10.457Z,100956.44
2022-10-17T05:02:15.033Z,100961.06
2022-10-17T05:07:19.201Z,100958.50
2022-10-17T05:12:28.212Z,100955.06
2022-10-17T05:17:31.111Z,100964.09
2022-10-17T05:22:38.306Z,100968.59
2022-10-17T05:27:44.311Z,100974.06
2022-10-17T05:32:47.156Z,100981.25
2022-10-17T05:37:51.280Z,100982.13
2022-10-17T05:42:55.703Z,100985.03
2022-10-17T05:47:59.723Z,100985.16
2022-10-17T05:53:03.886Z,100987.84
2022-10-17T05:58:09.782Z,100987.84
2022-10-17T06:03:20.261Z,100983.44
2022-10-17T06:08:24.363Z,100986.84
2022-10-17T06:13:27.169Z,100993.84
2022-10-17T06:18:30.891Z,100993.94
2022-10-17T06:23:35.688Z,101006.41
2022-10-17T06:28:50.491Z,101007.28
2022-10-17T06:33:54.554Z,101017.94
2022-10-17T06:38:58.652Z,101020.50
2022-10-17T06:44:11.176Z,101024.91
2022-10-17T06:49:46.087Z,101034.59
2022-10-17T06:54:58.622Z,101050.69
2022-10-17T07:00:16.463Z,101049.53
2022-10-17T07:05:25.075Z,101048.81
2022-10-17T07:10:29.242Z,101062.09
2022-10-17T07:15:32.428Z,101060.97
2022-10-17T07:20:35.806Z,101066.22
2022-10-17T07:25:40.413Z,101059.00
2022-10-17T07:30:47.485Z,101061.44
2022-10-17T07:35:53.728Z,101076.50
2022-10-17T07:40:58.416Z,101066.91
2022-10-17T07:46:01.698Z,101079.69
2022-10-17T07:51:05.627Z,101082.34
2022-10-17T07:56:10.429Z,101078.81
2022-10-17T08:01:15.616Z,101085.03
2022-10-17T08:06:18.978Z,101085.03
2022-10-17T08:11:23.218Z,101083.31
2022-10-17T08:16:25.851Z,101091.38
2022-10-17T08:21:28.524Z,101088.00
2022-10-17T08:26:32.633Z,101091.16
2022-10-17T08:31:35.310Z,101093.75
2022-10-17T08:36:38.019Z,101091.16
2022-10-17T08:41:50.381Z,101100.19
2022-10-17T08:46:54.477Z,101085.81
2022-10-17T08:51:59.942Z,101094.53
2022-10-17T08:57:03.957Z,101084.47
2022-10-17T09:02:17.141Z,101089.44
2022-10-17T09:07:21.676Z,101085.50
2022-10-17T09:12:28.208Z,101079.63
2022-10-17T09:17:36.266Z,101081.13
2022-10-17T09:22:40.396Z,101080.91
2022-10-17T09:27:46.482Z,101078.69
2022-10-17T09:32:49.267Z,101064.13
2022-10-17T09:37:51.887Z,101076.38
2022-10-17T09:42:56.078Z,101073.28
2022-10-17T09:48:02.171Z,101074.88
2022-10-17T09:53:08.560Z,101080.72
2022-10-17T09:58:12.755Z,101083.63
2022-10-17T10:03:17.624Z,101086.00
2022-10-17T10:08:20.401Z,101091.94
2022-10-17T10:13:24.880Z,101096.44
2022-10-17T10:23:33.840Z,101098.31
2022-10-17T10:28:38.573Z,101093.16
2022-10-17T10:33:45.918Z,101090.81
2022-10-17T10:38:53.809Z,101085.22
2022-10-17T10:43:57.911Z,101072.09
2022-10-17T10:54:06.046Z,101061.69
2022-10-17T10:59:14.092Z,101056.63
2022-10-17T11:04:23.048Z,101062.75
2022-10-17T11:09:32.861Z,101052.50
2022-10-17T11:14:43.745Z,101057.69
2022-10-17T11:19:49.478Z,101055.84
2022-10-17T11:24:57.031Z,101054.66
2022-10-17T11:30:00.994Z,101044.53
2022-10-17T11:35:05.337Z,101042.72
2022-10-17T11:40:11.510Z,101051.63
2022-10-17T11:45:16.903Z,101042.72
2022-10-17T11:55:45.746Z,101045.94
2022-10-17T12:00:57.743Z,101029.88
2022-10-17T12:06:04.746Z,101029.88
2022-10-17T12:11:10.491Z,101029.69
2022-10-17T12:16:38.951Z,101019.44
2022-10-17T12:21:58.994Z,101015.41
2022-10-17T12:27:23.375Z,101009.06
2022-10-17T12:32:30.281Z,101011.44
2022-10-17T12:38:04.485Z,101007.75
2022-10-17T12:43:58.510Z,100996.25
2022-10-17T12:49:24.496Z,100994.13
2022-10-17T12:54:27.185Z,100992.91
2022-10-17T12:59:30.340Z,100993.75
2022-10-17T13:04:34.501Z,100991.00
2022-10-17T13:09:38.694Z,100983.41
2022-10-17T13:14:42.199Z,100985.13
2022-10-17T13:19:46.955Z,100986.53
2022-10-17T13:24:50.099Z,100987.59
2022-10-17T13:29:52.897Z,100990.72
2022-10-17T13:35:10.719Z,100986.09
2022-10-17T13:40:40.244Z,100974.63
2022-10-17T13:45:39.960Z,100975.47
2022-10-17T13:50:44.958Z,100970.06
2022-10-17T13:56:22.946Z,100969.13
2022-10-17T14:01:21.547Z,100981.00
2022-10-17T14:06:25.579Z,100980.66
2022-10-17T14:11:34.944Z,100991.06
2022-10-17T14:16:40.002Z,100996.03
2022-10-17T14:21:44.910Z,100989.31
2022-10-17T14:26:48.421Z,100993.06
2022-10-17T14:31:53.645Z,100996.41
2022-10-17T14:36:57.804Z,100992.88
2022-10-17T14:42:04.271Z,100996.28
2022-10-17T14:47:38.048Z,101001.44
2022-10-17T14:52:33.127Z,100997.44
2022-10-17T14:57:42.893Z,101003.44
2022-10-17T15:02:45.941Z,101010.34
2022-10-17T15:07:49.927Z,101004.72
2022-10-17T15:12:59.158Z,101013.41
2022-10-17T15:18:07.267Z,101009.63
2022-10-17T15:23:11.301Z,100999.84
2022-10-17T15:28:13.930Z,101016.63
2022-10-17T15:33:16.612Z,101006.81
2022-10-17T15:38:20.573Z,101012.47
2022-10-17T15:43:23.285Z,101019.66
2022-10-17T15:48:28.567Z,101020.88
2022-10-17T15:53:32.580Z,101015.72
2022-10-17T15:58:37.510Z,101011.50
2022-10-17T16:03:40.573Z,101006.09
2022-10-17T16:08:44.996Z,101026.03
2022-10-17T16:13:51.785Z,101028.84
2022-10-17T16:18:54.628Z,101027.50
2022-10-17T16:23:58.777Z,101028.84
2022-10-17T16:29:03.266Z,101022.47
2022-10-17T16:34:06.642Z,101025.16
2022-10-17T16:39:10.889Z,101045.72
2022-10-17T16:44:15.703Z,101039.50
2022-10-17T16:49:18.622Z,101044.63
2022-10-17T16:54:22.663Z,101047.00
2022-10-17T16:59:25.526Z,101052.25
2022-10-17T17:04:28.392Z,101053.84
2022-10-17T17:09:32.481Z,101062.53
2022-10-17T17:14:35.358Z,101060.66
2022-10-17T17:19:38.045Z,101058.69
2022-10-17T17:24:42.217Z,101061.16
2022-10-17T17:29:44.981Z,101062.97
2022-10-17T17:34:47.938Z,101066.53
2022-10-17T17:39:51.951Z,101055.63
2022-10-17T17:44:54.659Z,101071.47
2022-10-17T17:49:57.393Z,101074.03
2022-10-17T17:55:01.450Z,101081.16
2022-10-17T18:00:04.822Z,101081.75
2022-10-17T18:05:08.641Z,101089.63
2022-10-17T18:15:18.324Z,101085.09
2022-10-17T18:20:21.079Z,101082.28
2022-10-17T18:25:25.272Z,101088.41
2022-10-17T18:30:28.960Z,101104.56
2022-10-17T18:35:35.438Z,101109.97
2022-10-17T18:40:39.451Z,101112.19
2022-10-17T18:45:42.419Z,101101.28
2022-10-17T18:50:45.232Z,101108.28
2022-10-17T18:55:49.266Z,101116.25
2022-10-17T19:00:51.958Z,101132.19
2022-10-17T19:05:56.705Z,101141.13
2022-10-17T19:11:07.286Z,101133.66
2022-10-17T19:16:11.175Z,101137.47
2022-10-17T19:21:16.030Z,101145.44
2022-10-17T19:26:23.382Z,101147.78
2022-10-17T19:31:27.263Z,101143.25
2022-10-17T19:36:33.634Z,101143.00
2022-10-17T19:41:37.859Z,101135.91
2022-10-17T19:46:40.668Z,101147.66
2022-10-17T19:51:43.442Z,101148.53
2022-10-17T19:56:47.461Z,101160.78
2022-10-17T20:01:50.271Z,101165.31
2022-10-17T20:06:53.064Z,101175.97
2022-10-17T20:11:57.061Z,101184.81
2022-10-17T20:16:59.769Z,101181.88
2022-10-17T20:22:02.484Z,101197.94
2022-10-17T20:27:06.572Z,101202.47
2022-10-17T20:32:09.360Z,101195.59
2022-10-17T20:37:12.012Z,101196.94
2022-10-17T20:42:16.120Z,101195.84
2022-10-17T20:47:33.139Z,101200.28
2022-10-17T20:52:41.508Z,101202.75
2022-10-17T20:57:45.666Z,101203.59
2022-10-17T21:02:48.543Z,101203.47
2022-10-17T21:07:51.245Z,101195.41
2022-10-17T21:12:55.769Z,101206.03
2022-10-17T21:17:58.645Z,101212.78
2022-10-17T21:23:01.347Z,101205.31
2022-10-17T21:28:05.497Z,101210.47
2022-10-17T21:33:08.485Z,101211.16
2022-10-17T21:38:11.224Z,101209.31
2022-10-17T21:43:15.271Z,101213.25
2022-10-17T21:48:18.065Z,101218.03
2022-10-17T21:53:20.753Z,101219.09
2022-10-17T21:58:24.789Z,101221.41
2022-10-17T22:03:27.441Z,101220.88
2022-10-17T22:08:30.198Z,101228.34
2022-10-17T22:13:34.213Z,101233.84
2022-10-17T22:18:36.909Z,101239.34
2022-10-17T22:23:39.564Z,101231.50
2022-10-17T22:28:43.608Z,101241.28
2022-10-17T22:33:46.468Z,101230.88
2022-10-17T22:38:49.184Z,101230.22
2022-10-17T22:43:53.370Z,101228.63
2022-10-17T22:48:56.057Z,101241.59
2022-10-17T22:53:58.819Z,101246.19
2022-10-17T22:59:02.844Z,101236.63
2022-10-17T23:04:05.624Z,101241.91
2022-10-17T23:09:08.351Z,101250.22
2022-10-17T23:14:12.385Z,101244.84
2022-10-17T23:19:15.043Z,101248.59
2022-10-17T23:24:17.908Z,101250.34
2022-10-17T23:29:22.065Z,101251.63
2022-10-17T23:34:24.746Z,101247.00
2022-10-17T23:39:27.469Z,101252.50
2022-10-17T23:44:31.432Z,101241.94
2022-10-17T23:49:34.109Z,101240.22
2022-10-17T23:54:36.781Z,101249.34
2022-10-17T23:59:40.882Z,101242.22
